Time;durP1;ratioP1;P1;durP2;ratioP2;P2;SDS_P1;SDS_P2;PMS_P1;PMS_P2;Temp;Humidity;BMP_temperature;BMP_pressure;BME280_temperature;BME280_humidity;BME280_pressure;Samples;Min_cycle;Max_cycle;Signal;HPM_P1;HPM_P2
2023/10/23 00:01:38;;;;;;;4.85;2.85;;;;;;;;;;5017725;28;20033;-63
2023/10/23 00:04:07;;;;;;;9.20;2.65;;;;;;;;;;5017648;28;20029;-63
2023/10/23 00:06:34;;;;;;;4.30;2.40;;;;;;;;;;5016177;28;20083;-63
2023/10/23 00:09:00;;;;;;;7.15;2.90;;;;;;;;;;5021103;28;20048;-63
2023/10/23 00:11:27;;;;;;;5.43;2.55;;;;;;;;;;5020662;28;20099;-65
2023/10/23 00:13:53;;;;;;;3.45;2.47;;;;;;;;;;5017698;28;20116;-63
2023/10/23 00:16:20;;;;;;;6.50;2.58;;;;;;;;;;5019588;28;20717;-63
2023/10/23 00:18:46;;;;;;;5.60;3.08;;;;;;;;;;5017880;28;20029;-64
2023/10/23 00:21:13;;;;;;;3.47;2.40;;;;;;;;;;5019589;28;20025;-64
2023/10/23 00:23:39;;;;;;;4.35;2.92;;;;;;;;;;5012971;28;20320;-64
2023/10/23 00:26:05;;;;;;;7.65;3.05;;;;;;;;;;5016846;28;20473;-64
2023/10/23 00:28:32;;;;;;;5.32;3.30;;;;;;;;;;5011449;28;20056;-64
2023/10/23 00:30:58;;;;;;;4.38;2.67;;;;;;;;;;5017173;28;20056;-66
2023/10/23 00:33:25;;;;;;;4.47;2.63;;;;;;;;;;5021014;28;20037;-63
2023/10/23 00:35:51;;;;;;;4.80;2.30;;;;;;;;;;5019868;28;20507;-66
2023/10/23 00:38:17;;;;;;;3.95;2.40;;;;;;;;;;5020613;28;20049;-63
2023/10/23 00:40:43;;;;;;;3.72;2.55;;;;;;;;;;5022323;28;20040;-65
2023/10/23 00:43:19;;;;;;;3.70;2.78;;;;;;;;;;5025044;28;20021;-64
2023/10/23 00:45:50;;;;;;;4.43;2.53;;;;;;;;;;5020401;28;20037;-64
2023/10/23 00:48:19;;;;;;;7.50;2.25;;;;;;;;;;5023255;28;20029;-63
2023/10/23 00:50:45;;;;;;;5.28;2.30;;;;;;;;;;5023850;28;20033;-63
2023/10/23 00:53:12;;;;;;;3.47;2.40;;;;;;;;;;5020257;28;20112;-64
2023/10/23 00:55:38;;;;;;;6.68;2.65;;;;;;;;;;5024235;28;20112;-64
2023/10/23 00:58:04;;;;;;;6.53;2.50;;;;;;;;;;5016156;28;20248;-68
2023/10/23 01:00:31;;;;;;;5.50;2.13;;;;;;;;;;5023534;28;20036;-63
2023/10/23 01:02:57;;;;;;;3.90;2.20;;;;;;;;;;5024414;28;20084;-63
2023/10/23 01:05:23;;;;;;;5.45;2.30;;;;;;;;;;5022911;28;20029;-64
2023/10/23 01:07:50;;;;;;;5.65;2.60;;;;;;;;;;5023058;28;20029;-63
2023/10/23 01:10:16;;;;;;;4.35;2.50;;;;;;;;;;5020724;28;20384;-64
2023/10/23 01:31:13;;;;;;;6.55;2.55;;;;;;;;;;5024032;28;20544;-64
2023/10/23 01:33:39;;;;;;;;;;;;;;;;;;5027436;28;20104;-64
2023/10/23 01:36:06;;;;;;;5.32;2.58;;;;;;;;;;5021350;28;20007;-64
2023/10/23 01:38:32;;;;;;;3.08;2.20;;;;;;;;;;5018886;28;20056;-63
2023/10/23 01:40:58;;;;;;;4.35;2.30;;;;;;;;;;5021479;28;20544;-63
2023/10/23 01:43:24;;;;;;;4.43;2.00;;;;;;;;;;5022359;28;20033;-63
2023/10/23 01:45:50;;;;;;;6.97;2.65;;;;;;;;;;5022020;28;20025;-63
2023/10/23 01:48:16;;;;;;;3.25;2.35;;;;;;;;;;5019455;28;20095;-63
2023/10/23 01:50:42;;;;;;;6.05;2.50;;;;;;;;;;5019653;28;20104;-63
2023/10/23 01:53:08;;;;;;;5.35;2.30;;;;;;;;;;5012512;28;20029;-64
2023/10/23 01:55:35;;;;;;;4.35;2.42;;;;;;;;;;5022764;28;20447;-64
2023/10/23 01:58:01;;;;;;;5.68;2.42;;;;;;;;;;5019949;28;20125;-63
2023/10/23 02:00:27;;;;;;;6.70;2.50;;;;;;;;;;5022683;28;20033;-64
2023/10/23 02:02:54;;;;;;;6.70;2.55;;;;;;;;;;5018905;28;20029;-63
2023/10/23 02:05:20;;;;;;;5.30;1.95;;;;;;;;;;5021387;28;20099;-63
2023/10/23 02:07:46;;;;;;;3.67;2.15;;;;;;;;;;5023226;28;20051;-63
2023/10/23 02:10:12;;;;;;;4.05;2.38;;;;;;;;;;5016143;28;20516;-64
2023/10/23 02:12:39;;;;;;;5.30;2.30;;;;;;;;;;5020408;28;20108;-63
2023/10/23 02:15:05;;;;;;;4.78;2.20;;;;;;;;;;5020593;28;20029;-64
2023/10/23 02:17:31;;;;;;;5.78;2.25;;;;;;;;;;5020610;28;20389;-63
2023/10/23 02:19:58;;;;;;;7.55;2.30;;;;;;;;;;5018604;28;20034;-63
2023/10/23 02:22:24;;;;;;;5.07;2.00;;;;;;;;;;5015320;28;20083;-64
2023/10/23 02:24:50;;;;;;;4.95;2.15;;;;;;;;;;5019409;28;20041;-64
2023/10/23 02:27:16;;;;;;;7.13;2.35;;;;;;;;;;5017915;28;20994;-63
2023/10/23 02:29:43;;;;;;;6.50;2.55;;;;;;;;;;5032969;28;20033;-67
2023/10/23 02:32:09;;;;;;;9.90;2.55;;;;;;;;;;5021289;28;20048;-64
2023/10/23 02:34:36;;;;;;;6.43;2.30;;;;;;;;;;5019843;28;20457;-66
2023/10/23 02:37:02;;;;;;;5.10;2.65;;;;;;;;;;5019074;28;20474;-64
2023/10/23 02:39:28;;;;;;;5.43;2.05;;;;;;;;;;5013430;28;20436;-63
2023/10/23 02:41:55;;;;;;;4.70;2.05;;;;;;;;;;5010494;28;20030;-63
2023/10/23 02:44:21;;;;;;;6.15;2.00;;;;;;;;;;5013812;28;20028;-64
2023/10/23 02:46:47;;;;;;;14.05;2.60;;;;;;;;;;5016927;28;20056;-63
2023/10/23 02:49:13;;;;;;;7.60;2.45;;;;;;;;;;5022390;28;20156;-63
2023/10/23 02:51:39;;;;;;;4.53;1.92;;;;;;;;;;5019760;28;20041;-64
2023/10/23 02:54:05;;;;;;;4.72;2.25;;;;;;;;;;5018791;28;20029;-63
2023/10/23 02:56:32;;;;;;;3.15;2.08;;;;;;;;;;5039361;28;20025;-63
2023/10/23 02:58:58;;;;;;;3.92;1.83;;;;;;;;;;5020267;28;20075;-63
2023/10/23 03:01:25;;;;;;;4.22;1.75;;;;;;;;;;5022493;28;20037;-64
2023/10/23 03:03:51;;;;;;;2.88;1.90;;;;;;;;;;5023411;28;20047;-64
2023/10/23 03:06:17;;;;;;;6.50;2.28;;;;;;;;;;5021706;28;20049;-65
2023/10/23 03:08:44;;;;;;;5.95;2.10;;;;;;;;;;5024075;28;20029;-64
2023/10/23 03:11:10;;;;;;;10.35;2.33;;;;;;;;;;5025233;28;20029;-64
2023/10/23 03:13:36;;;;;;;7.47;2.80;;;;;;;;;;5025035;28;20017;-64
2023/10/23 03:16:03;;;;;;;4.45;2.40;;;;;;;;;;5023492;28;20057;-64
2023/10/23 03:18:29;;;;;;;2.45;2.00;;;;;;;;;;5019405;28;20363;-63
2023/10/23 03:20:59;;;;;;;5.95;2.00;;;;;;;;;;5023349;28;20029;-63
2023/10/23 03:23:26;;;;;;;4.72;2.42;;;;;;;;;;5020964;28;20025;-63
2023/10/23 03:25:52;;;;;;;5.88;2.42;;;;;;;;;;5022211;28;20064;-63
2023/10/23 03:28:18;;;;;;;6.35;2.45;;;;;;;;;;5019209;28;20053;-64
2023/10/23 03:30:44;;;;;;;5.10;2.17;;;;;;;;;;5020216;28;20292;-64
2023/10/23 03:33:10;;;;;;;11.65;2.70;;;;;;;;;;5024548;28;20108;-64
2023/10/23 03:35:41;;;;;;;7.07;2.30;;;;;;;;;;5016265;28;20043;-64
2023/10/23 03:38:07;;;;;;;5.90;2.70;;;;;;;;;;5022229;28;20029;-64
2023/10/23 03:40:34;;;;;;;4.60;1.80;;;;;;;;;;5016524;28;20041;-65
2023/10/23 03:43:00;;;;;;;11.07;2.20;;;;;;;;;;5019798;28;20048;-63
2023/10/23 03:45:26;;;;;;;9.98;2.63;;;;;;;;;;5020646;28;20512;-64
2023/10/23 03:47:52;;;;;;;8.57;2.40;;;;;;;;;;5018009;28;20069;-66
2023/10/23 03:50:18;;;;;;;5.22;2.60;;;;;;;;;;5020479;28;20025;-64
2023/10/23 03:52:44;;;;;;;5.63;2.25;;;;;;;;;;5019680;28;20029;-64
2023/10/23 03:55:10;;;;;;;14.82;3.33;;;;;;;;;;5023589;28;20426;-64
2023/10/23 03:57:37;;;;;;;6.22;2.10;;;;;;;;;;5023050;28;20119;-64
2023/10/23 04:00:03;;;;;;;9.93;2.65;;;;;;;;;;5022353;28;20037;-63
2023/10/23 04:02:29;;;;;;;9.10;2.90;;;;;;;;;;5020376;28;20025;-63
2023/10/23 04:04:55;;;;;;;3.95;2.33;;;;;;;;;;5021196;28;20033;-63
2023/10/23 04:07:21;;;;;;;14.10;3.05;;;;;;;;;;5018994;28;20029;-63
2023/10/23 04:09:48;;;;;;;6.70;2.13;;;;;;;;;;5017479;28;20385;-63
2023/10/23 04:12:16;;;;;;;4.22;2.70;;;;;;;;;;5016373;28;20053;-63
2023/10/23 04:14:46;;;;;;;4.13;2.40;;;;;;;;;;5021499;28;20026;-64
2023/10/23 04:17:12;;;;;;;3.47;2.15;;;;;;;;;;5020336;28;20041;-63
2023/10/23 04:19:39;;;;;;;6.38;2.25;;;;;;;;;;5019985;28;20093;-63
2023/10/23 04:22:06;;;;;;;9.10;2.50;;;;;;;;;;5022652;28;20144;-63
2023/10/23 04:24:32;;;;;;;3.42;2.00;;;;;;;;;;5023594;28;20577;-63
2023/10/23 04:26:58;;;;;;;5.07;2.85;;;;;;;;;;5018610;28;20102;-64
2023/10/23 04:29:25;;;;;;;5.88;2.95;;;;;;;;;;5023000;28;20128;-64
2023/10/23 04:31:51;;;;;;;7.55;2.33;;;;;;;;;;5018260;28;20788;-64
2023/10/23 04:34:17;;;;;;;7.60;2.42;;;;;;;;;;5024772;28;20075;-64
2023/10/23 04:36:43;;;;;;;9.65;2.67;;;;;;;;;;5021977;28;20028;-63
2023/10/23 04:39:09;;;;;;;5.93;2.20;;;;;;;;;;5019131;28;20353;-66
2023/10/23 04:41:35;;;;;;;4.68;2.47;;;;;;;;;;5020897;28;20072;-63
2023/10/23 04:44:02;;;;;;;5.53;2.30;;;;;;;;;;5020977;28;20456;-64
2023/10/23 04:46:28;;;;;;;6.10;2.13;;;;;;;;;;5030204;28;20558;-64
2023/10/23 04:48:54;;;;;;;5.32;2.10;;;;;;;;;;5022418;28;20030;-64
2023/10/23 04:51:20;;;;;;;6.15;2.65;;;;;;;;;;5022605;28;20028;-63
2023/10/23 04:53:46;;;;;;;5.15;1.92;;;;;;;;;;5021979;28;20569;-63
2023/10/23 04:56:13;;;;;;;6.38;2.25;;;;;;;;;;5023153;28;20021;-63
2023/10/23 04:58:39;;;;;;;4.28;1.88;;;;;;;;;;5018940;28;20099;-63
2023/10/23 05:01:05;;;;;;;3.75;1.95;;;;;;;;;;5018953;28;20033;-64
2023/10/23 05:03:31;;;;;;;2.75;1.50;;;;;;;;;;5021384;28;20116;-64
2023/10/23 05:05:57;;;;;;;1.58;1.48;;;;;;;;;;5021441;28;20138;-64
2023/10/23 05:08:24;;;;;;;1.70;1.60;;;;;;;;;;5022501;28;20465;-63
2023/10/23 05:10:50;;;;;;;2.55;1.30;;;;;;;;;;5019440;28;20022;-63
2023/10/23 05:13:16;;;;;;;1.80;1.70;;;;;;;;;;5018890;28;20054;-64
2023/10/23 05:15:42;;;;;;;1.40;1.30;;;;;;;;;;5019019;28;20439;-63
2023/10/23 05:18:09;;;;;;;2.88;1.38;;;;;;;;;;5017358;28;20452;-64
2023/10/23 05:20:37;;;;;;;1.23;1.23;;;;;;;;;;5023437;28;20041;-64
2023/10/23 05:23:03;;;;;;;1.65;1.55;;;;;;;;;;5037635;28;20443;-64
2023/10/23 05:25:29;;;;;;;2.47;1.70;;;;;;;;;;5023914;28;20551;-63
2023/10/23 05:27:55;;;;;;;2.25;1.50;;;;;;;;;;5016236;28;20088;-64
2023/10/23 05:30:22;;;;;;;1.60;1.50;;;;;;;;;;5021336;28;20030;-63
2023/10/23 05:32:48;;;;;;;2.60;1.30;;;;;;;;;;5025288;28;20112;-65
2023/10/23 05:35:14;;;;;;;1.85;1.73;;;;;;;;;;5026320;28;20052;-68
2023/10/23 05:37:40;;;;;;;3.13;1.70;;;;;;;;;;5040811;28;20092;-64
2023/10/23 05:40:07;;;;;;;1.65;1.55;;;;;;;;;;5017766;28;20057;-73
2023/10/23 05:42:33;;;;;;;3.20;1.50;;;;;;;;;;5022702;28;20291;-71
2023/10/23 05:45:00;;;;;;;2.75;1.70;;;;;;;;;;5038664;28;20029;-72
2023/10/23 05:47:26;;;;;;;2.60;1.90;;;;;;;;;;5018812;28;20428;-73
2023/10/23 05:49:53;;;;;;;3.35;1.80;;;;;;;;;;5024827;28;20033;-72
2023/10/23 05:52:19;;;;;;;4.25;1.80;;;;;;;;;;5025062;28;20250;-71
2023/10/23 05:54:45;;;;;;;2.25;2.05;;;;;;;;;;5025226;28;20041;-72
2023/10/23 05:57:12;;;;;;;2.28;2.00;;;;;;;;;;5016245;28;20037;-72
2023/10/23 05:59:38;;;;;;;2.00;1.90;;;;;;;;;;5016489;28;20061;-72
2023/10/23 06:02:04;;;;;;;3.47;1.80;;;;;;;;;;5024192;28;20034;-75
2023/10/23 06:04:30;;;;;;;4.63;2.15;;;;;;;;;;5022491;28;20029;-73
2023/10/23 06:06:56;;;;;;;5.07;2.13;;;;;;;;;;5023246;28;20065;-73
2023/10/23 06:09:22;;;;;;;5.38;2.00;;;;;;;;;;5021263;28;20111;-71
2023/10/23 06:11:48;;;;;;;4.13;2.13;;;;;;;;;;5022125;28;20315;-71
2023/10/23 06:14:14;;;;;;;7.35;2.10;;;;;;;;;;5023460;28;20489;-76
2023/10/23 06:16:40;;;;;;;3.15;2.00;;;;;;;;;;5024789;28;20083;-73
2023/10/23 06:19:07;;;;;;;6.03;2.33;;;;;;;;;;5020896;28;20397;-72
2023/10/23 06:21:33;;;;;;;5.57;2.53;;;;;;;;;;5025172;28;20043;-72
2023/10/23 06:23:59;;;;;;;8.55;2.90;;;;;;;;;;5019631;28;20116;-72
2023/10/23 06:26:28;;;;;;;5.43;2.40;;;;;;;;;;5014676;28;20037;-72
2023/10/23 06:28:54;;;;;;;6.22;2.45;;;;;;;;;;5023346;28;20041;-71
2023/10/23 06:31:21;;;;;;;7.20;2.63;;;;;;;;;;5028196;28;20424;-72
2023/10/23 06:33:47;;;;;;;8.18;3.10;;;;;;;;;;5025628;28;20497;-72
2023/10/23 06:36:13;;;;;;;3.83;2.40;;;;;;;;;;5023476;28;20525;-72
2023/10/23 06:38:40;;;;;;;9.10;2.85;;;;;;;;;;5024138;28;20066;-72
2023/10/23 06:41:07;;;;;;;6.88;2.85;;;;;;;;;;5023159;28;20060;-72
2023/10/23 06:43:34;;;;;;;6.30;3.35;;;;;;;;;;5024131;28;20476;-72
2023/10/23 06:46:00;;;;;;;10.02;3.10;;;;;;;;;;5023003;28;20148;-72
2023/10/23 06:48:28;;;;;;;4.60;2.75;;;;;;;;;;5024811;28;20476;-72
2023/10/23 06:50:54;;;;;;;3.97;2.65;;;;;;;;;;5022766;28;20473;-72
2023/10/23 06:53:20;;;;;;;8.95;3.03;;;;;;;;;;5023166;28;20033;-72
2023/10/23 06:55:47;;;;;;;5.65;2.72;;;;;;;;;;5019129;28;20028;-72
2023/10/23 06:58:13;;;;;;;4.40;3.13;;;;;;;;;;5022129;28;20060;-71
2023/10/23 07:00:39;;;;;;;8.68;3.35;;;;;;;;;;5023970;28;20343;-72
2023/10/23 07:03:05;;;;;;;7.82;3.30;;;;;;;;;;5016487;28;20033;-73
2023/10/23 07:05:31;;;;;;;11.05;3.35;;;;;;;;;;5024392;28;20035;-72
2023/10/23 07:07:57;;;;;;;10.80;3.80;;;;;;;;;;5023794;28;20117;-72
2023/10/23 07:10:23;;;;;;;8.35;3.35;;;;;;;;;;5023803;28;20022;-72
2023/10/23 07:12:49;;;;;;;8.15;3.47;;;;;;;;;;5021740;28;20025;-73
2023/10/23 07:15:16;;;;;;;7.10;3.90;;;;;;;;;;5023793;28;20025;-72
2023/10/23 07:17:42;;;;;;;7.82;2.88;;;;;;;;;;5020292;28;20044;-72
2023/10/23 07:20:08;;;;;;;8.35;3.47;;;;;;;;;;5024152;28;20057;-72
2023/10/23 07:22:34;;;;;;;13.63;3.53;;;;;;;;;;5021730;28;20033;-72
2023/10/23 07:25:00;;;;;;;7.35;3.08;;;;;;;;;;5019781;28;20033;-72
2023/10/23 07:27:26;;;;;;;4.28;2.90;;;;;;;;;;5020123;28;20099;-72
2023/10/23 07:29:53;;;;;;;5.38;2.75;;;;;;;;;;5023486;28;20029;-71
2023/10/23 07:32:19;;;;;;;5.50;3.05;;;;;;;;;;5021547;28;20017;-72
2023/10/23 07:34:45;;;;;;;5.88;2.72;;;;;;;;;;5022289;28;20401;-72
2023/10/23 07:37:17;;;;;;;8.82;3.42;;;;;;;;;;5023428;28;20041;-72
2023/10/23 07:39:47;;;;;;;5.43;2.72;;;;;;;;;;5026666;28;20026;-71
2023/10/23 07:42:14;;;;;;;5.72;2.85;;;;;;;;;;5024739;28;20509;-72
2023/10/23 07:44:40;;;;;;;6.10;2.70;;;;;;;;;;5022711;28;20021;-71
2023/10/23 07:47:06;;;;;;;10.80;2.85;;;;;;;;;;5022280;28;20484;-72
2023/10/23 07:49:32;;;;;;;15.57;3.33;;;;;;;;;;5022423;28;20456;-72
2023/10/23 07:51:58;;;;;;;4.75;3.20;;;;;;;;;;5021202;28;20519;-72
2023/10/23 07:54:24;;;;;;;4.15;2.53;;;;;;;;;;5022978;28;21225;-71
2023/10/23 07:56:50;;;;;;;10.48;3.13;;;;;;;;;;5040380;28;20108;-72
2023/10/23 07:59:21;;;;;;;9.30;3.35;;;;;;;;;;5022024;28;20037;-72
2023/10/23 08:01:48;;;;;;;9.75;2.53;;;;;;;;;;5030656;28;20061;-72
2023/10/23 08:04:14;;;;;;;9.35;3.35;;;;;;;;;;5023480;28;20083;-71
2023/10/23 08:06:40;;;;;;;5.60;2.47;;;;;;;;;;5022541;28;20025;-73
2023/10/23 08:09:06;;;;;;;9.50;2.88;;;;;;;;;;5022538;28;20162;-73
2023/10/23 08:11:32;;;;;;;4.68;2.95;;;;;;;;;;5024957;28;20033;-72
2023/10/23 08:14:00;;;;;;;10.73;3.08;;;;;;;;;;5017876;28;20080;-72
2023/10/23 08:16:26;;;;;;;5.82;2.53;;;;;;;;;;5023373;28;20033;-71
2023/10/23 08:18:52;;;;;;;7.95;2.95;;;;;;;;;;5019055;28;20522;-71
2023/10/23 08:21:19;;;;;;;7.20;2.80;;;;;;;;;;5020931;28;20033;-71
2023/10/23 08:23:54;;;;;;;6.53;2.67;;;;;;;;;;5020051;28;20539;-70
2023/10/23 08:26:20;;;;;;;9.57;2.67;;;;;;;;;;5022154;28;20033;-71
2023/10/23 08:28:46;;;;;;;10.30;3.35;;;;;;;;;;5022370;28;20038;-71
2023/10/23 08:31:13;;;;;;;8.32;2.97;;;;;;;;;;5018176;28;20036;-72
2023/10/23 08:33:39;;;;;;;7.88;2.50;;;;;;;;;;5026364;28;20229;-71
2023/10/23 08:36:05;;;;;;;6.60;2.60;;;;;;;;;;5022999;28;20033;-72
2023/10/23 08:38:31;;;;;;;9.20;3.50;;;;;;;;;;5018568;28;20033;-72
2023/10/23 08:40:57;;;;;;;7.93;2.63;;;;;;;;;;5024590;28;20105;-71
2023/10/23 08:43:24;;;;;;;11.63;2.90;;;;;;;;;;5023441;28;20025;-72
2023/10/23 08:45:54;;;;;;;6.60;2.92;;;;;;;;;;5022520;28;20029;-71
2023/10/23 08:48:20;;;;;;;5.78;2.33;;;;;;;;;;5019978;28;20040;-72
2023/10/23 08:50:47;;;;;;;15.35;2.97;;;;;;;;;;5024646;28;20032;-72
2023/10/23 08:53:15;;;;;;;6.63;2.53;;;;;;;;;;5022582;28;20111;-71
2023/10/23 08:55:42;;;;;;;6.07;3.75;;;;;;;;;;5023826;28;20022;-72
2023/10/23 08:58:09;;;;;;;10.20;3.20;;;;;;;;;;5022939;28;20029;-72
2023/10/23 09:00:35;;;;;;;5.47;2.30;;;;;;;;;;5019323;28;21041;-72
2023/10/23 09:03:02;;;;;;;5.97;2.90;;;;;;;;;;5024207;28;20036;-72
2023/10/23 09:05:28;;;;;;;5.95;2.40;;;;;;;;;;5026081;28;20116;-72
2023/10/23 09:07:55;;;;;;;5.05;2.60;;;;;;;;;;5026319;28;20025;-71
2023/10/23 09:10:21;;;;;;;8.23;3.15;;;;;;;;;;5025790;28;20032;-72
2023/10/23 09:12:47;;;;;;;9.40;2.63;;;;;;;;;;5025730;28;20162;-71
2023/10/23 09:15:24;;;;;;;6.32;2.45;;;;;;;;;;5026878;28;20391;-71
2023/10/23 09:17:51;;;;;;;9.35;2.80;;;;;;;;;;5024453;28;20025;-71
2023/10/23 09:20:18;;;;;;;5.40;3.55;;;;;;;;;;5027246;28;20036;-71
2023/10/23 09:22:47;;;;;;;6.15;2.60;;;;;;;;;;5024600;28;20029;-71
2023/10/23 09:25:26;;;;;;;6.88;2.30;;;;;;;;;;5022237;28;20382;-71
2023/10/23 09:27:52;;;;;;;11.75;2.72;;;;;;;;;;5020992;28;20401;-71
2023/10/23 09:30:22;;;;;;;5.03;2.20;;;;;;;;;;5026660;28;20640;-71
2023/10/23 09:32:55;;;;;;;7.63;2.50;;;;;;;;;;5025763;28;20021;-71
2023/10/23 09:35:25;;;;;;;6.25;2.25;;;;;;;;;;5026519;28;20038;-73
2023/10/23 09:37:51;;;;;;;5.78;2.40;;;;;;;;;;5024960;28;20433;-71
2023/10/23 09:40:17;;;;;;;7.32;2.40;;;;;;;;;;5038682;28;20678;-72
2023/10/23 09:42:44;;;;;;;8.82;3.30;;;;;;;;;;5022474;28;20068;-72
2023/10/23 09:45:11;;;;;;;6.90;2.65;;;;;;;;;;5024861;28;20037;-71
2023/10/23 09:47:38;;;;;;;4.97;3.17;;;;;;;;;;5026011;28;20044;-71
2023/10/23 09:50:04;;;;;;;9.90;2.63;;;;;;;;;;5026469;28;20024;-72
2023/10/23 09:52:34;;;;;;;5.03;2.22;;;;;;;;;;5018421;28;20466;-71
2023/10/23 09:55:03;;;;;;;5.90;2.30;;;;;;;;;;5026706;28;20032;-70
2023/10/23 09:57:33;;;;;;;10.45;3.08;;;;;;;;;;5024713;28;20083;-70
2023/10/23 10:00:00;;;;;;;5.70;2.40;;;;;;;;;;5025244;28;20500;-71
2023/10/23 10:02:29;;;;;;;5.50;2.40;;;;;;;;;;5021996;28;20045;-71
2023/10/23 10:05:06;;;;;;;4.80;2.30;;;;;;;;;;5024650;28;20250;-71
2023/10/23 10:07:38;;;;;;;4.05;2.70;;;;;;;;;;5023391;28;20120;-71
2023/10/23 10:10:05;;;;;;;7.28;2.35;;;;;;;;;;5025021;28;20030;-72
2023/10/23 10:12:34;;;;;;;6.13;2.63;;;;;;;;;;5022605;28;20026;-72
2023/10/23 10:15:01;;;;;;;15.82;3.80;;;;;;;;;;5022299;28;20036;-71
2023/10/23 10:17:28;;;;;;;3.53;2.25;;;;;;;;;;5023988;28;20052;-71
2023/10/23 10:19:54;;;;;;;8.10;3.40;;;;;;;;;;5021116;28;20497;-72
2023/10/23 10:22:24;;;;;;;3.55;2.20;;;;;;;;;;5025521;28;20053;-71
2023/10/23 10:24:52;;;;;;;10.02;2.85;;;;;;;;;;5023712;28;20029;-72
2023/10/23 10:27:18;;;;;;;12.15;3.00;;;;;;;;;;5024719;28;20095;-71
2023/10/23 10:29:44;;;;;;;9.48;2.72;;;;;;;;;;5025644;28;20034;-71
2023/10/23 10:32:11;;;;;;;12.90;3.00;;;;;;;;;;5016393;28;20377;-71
2023/10/23 10:34:46;;;;;;;8.15;3.08;;;;;;;;;;5025361;28;20099;-73
2023/10/23 10:37:12;;;;;;;5.80;2.70;;;;;;;;;;5022380;28;20366;-72
2023/10/23 10:39:48;;;;;;;12.02;3.28;;;;;;;;;;5025273;28;20043;-71
2023/10/23 10:42:22;;;;;;;7.90;3.05;;;;;;;;;;5014486;28;20474;-71
2023/10/23 10:45:10;;;;;;;5.43;2.60;;;;;;;;;;5018240;28;20511;-71
2023/10/23 10:47:44;;;;;;;9.45;2.60;;;;;;;;;;5018709;28;20500;-71
2023/10/23 10:50:10;;;;;;;5.65;2.20;;;;;;;;;;5021699;28;20382;-72
2023/10/23 10:52:37;;;;;;;6.93;2.30;;;;;;;;;;5021986;28;20025;-72
2023/10/23 10:55:08;;;;;;;4.25;2.25;;;;;;;;;;5020290;28;20576;-71
2023/10/23 10:57:34;;;;;;;7.00;2.20;;;;;;;;;;5022917;28;20025;-72
2023/10/23 11:00:01;;;;;;;4.60;2.40;;;;;;;;;;5022243;28;21010;-72
2023/10/23 11:02:27;;;;;;;7.18;2.70;;;;;;;;;;5021062;28;20390;-71
2023/10/23 11:04:53;;;;;;;9.38;2.67;;;;;;;;;;5017607;28;20331;-71
2023/10/23 11:07:24;;;;;;;11.13;2.92;;;;;;;;;;5022116;28;20456;-72
2023/10/23 11:09:50;;;;;;;6.53;2.40;;;;;;;;;;5021704;28;20058;-72
2023/10/23 11:12:20;;;;;;;10.13;3.20;;;;;;;;;;5015012;28;20025;-71
2023/10/23 11:14:49;;;;;;;4.75;2.80;;;;;;;;;;5018274;28;20056;-71
2023/10/23 11:17:15;;;;;;;5.80;2.40;;;;;;;;;;5023663;28;20029;-71
2023/10/23 11:19:42;;;;;;;3.90;2.30;;;;;;;;;;5021031;28;20523;-71
2023/10/23 11:22:13;;;;;;;10.02;2.67;;;;;;;;;;5021679;28;20033;-71
2023/10/23 11:24:39;;;;;;;8.88;2.67;;;;;;;;;;5021573;28;20037;-72
2023/10/23 11:27:05;;;;;;;6.25;2.50;;;;;;;;;;5020787;28;20073;-71
2023/10/23 11:29:38;;;;;;;4.72;2.40;;;;;;;;;;5022401;28;20064;-71
2023/10/23 11:32:04;;;;;;;7.30;2.30;;;;;;;;;;5021526;28;20064;-72
2023/10/23 11:34:31;;;;;;;5.65;2.80;;;;;;;;;;5019991;28;20109;-71
2023/10/23 11:36:57;;;;;;;7.68;2.75;;;;;;;;;;5024276;28;20026;-71
2023/10/23 11:39:23;;;;;;;11.98;3.60;;;;;;;;;;5014806;28;20550;-72
2023/10/23 11:41:56;;;;;;;3.53;2.22;;;;;;;;;;5013633;28;20033;-72
2023/10/23 11:44:26;;;;;;;8.93;2.53;;;;;;;;;;5027524;28;20036;-71
2023/10/23 11:46:55;;;;;;;6.93;2.42;;;;;;;;;;5021270;28;20053;-72
2023/10/23 11:49:25;;;;;;;8.77;2.45;;;;;;;;;;5019745;28;20958;-72
2023/10/23 11:51:52;;;;;;;8.52;2.30;;;;;;;;;;5022593;28;20025;-72
2023/10/23 11:54:19;;;;;;;6.97;3.58;;;;;;;;;;5020204;28;20025;-71
2023/10/23 11:56:46;;;;;;;13.63;2.85;;;;;;;;;;5023654;28;20033;-71
2023/10/23 11:59:18;;;;;;;8.73;2.63;;;;;;;;;;5018983;28;20029;-72
2023/10/23 12:01:45;;;;;;;9.90;3.25;;;;;;;;;;5020442;28;20728;-72
2023/10/23 12:04:12;;;;;;;9.68;2.55;;;;;;;;;;5013032;28;20089;-72
2023/10/23 12:06:39;;;;;;;7.70;2.95;;;;;;;;;;5020707;28;20029;-71
2023/10/23 12:09:06;;;;;;;7.88;3.42;;;;;;;;;;5019451;28;20040;-72
2023/10/23 12:11:33;;;;;;;9.60;3.05;;;;;;;;;;5022752;28;20030;-72
2023/10/23 12:14:02;;;;;;;13.77;3.45;;;;;;;;;;5018782;28;20645;-71
2023/10/23 12:16:28;;;;;;;8.85;3.42;;;;;;;;;;5022259;28;20049;-71
2023/10/23 12:18:54;;;;;;;4.55;2.40;;;;;;;;;;5017625;28;20080;-71
2023/10/23 12:21:20;;;;;;;5.38;2.53;;;;;;;;;;5023360;28;20033;-72
2023/10/23 12:23:47;;;;;;;5.50;3.13;;;;;;;;;;5017219;28;20096;-71
2023/10/23 12:26:13;;;;;;;5.57;2.58;;;;;;;;;;5019248;28;20036;-71
2023/10/23 12:28:39;;;;;;;10.38;3.60;;;;;;;;;;5019874;28;20044;-72
2023/10/23 12:31:06;;;;;;;8.77;4.10;;;;;;;;;;5022736;28;20116;-72
2023/10/23 12:33:32;;;;;;;7.22;3.17;;;;;;;;;;5020823;28;20076;-71
2023/10/23 12:36:03;;;;;;;9.73;3.05;;;;;;;;;;5027173;28;20033;-72
2023/10/23 12:38:34;;;;;;;5.95;2.97;;;;;;;;;;5023610;28;20336;-72
2023/10/23 12:41:00;;;;;;;3.92;2.53;;;;;;;;;;5024389;28;20822;-72
2023/10/23 12:43:26;;;;;;;6.07;3.10;;;;;;;;;;5020617;28;20513;-74
2023/10/23 12:45:52;;;;;;;12.00;3.63;;;;;;;;;;5024764;28;20037;-73
2023/10/23 12:48:19;;;;;;;6.68;3.63;;;;;;;;;;5039712;28;20026;-74
2023/10/23 12:50:47;;;;;;;5.82;2.83;;;;;;;;;;5025438;28;20091;-74
2023/10/23 12:53:14;;;;;;;8.98;3.05;;;;;;;;;;5024130;28;20018;-74
2023/10/23 12:55:41;;;;;;;7.35;3.30;;;;;;;;;;5027102;28;20021;-73
2023/10/23 12:58:07;;;;;;;7.65;3.25;;;;;;;;;;5042513;28;20033;-73
2023/10/23 13:00:33;;;;;;;15.73;4.03;;;;;;;;;;5024195;28;20281;-72
2023/10/23 13:03:00;;;;;;;6.38;3.25;;;;;;;;;;5029256;28;20101;-74
2023/10/23 13:05:26;;;;;;;6.40;3.03;;;;;;;;;;5024900;28;20048;-73
2023/10/23 13:07:52;;;;;;;3.70;2.67;;;;;;;;;;5025093;28;20033;-73
2023/10/23 13:10:18;;;;;;;8.57;3.22;;;;;;;;;;5025136;28;20021;-72
2023/10/23 13:12:44;;;;;;;6.47;2.80;;;;;;;;;;5026682;28;20025;-73
2023/10/23 13:15:10;;;;;;;7.25;3.00;;;;;;;;;;5025308;28;20465;-73
2023/10/23 13:17:37;;;;;;;5.22;2.50;;;;;;;;;;5023779;28;20075;-73
2023/10/23 13:20:06;;;;;;;7.30;4.20;;;;;;;;;;5027100;28;20075;-73
2023/10/23 13:22:34;;;;;;;4.90;3.38;;;;;;;;;;5022689;28;20389;-73
2023/10/23 13:25:00;;;;;;;9.40;4.13;;;;;;;;;;5028296;28;20037;-72
2023/10/23 13:27:26;;;;;;;3.88;2.38;;;;;;;;;;5024907;28;20057;-73
2023/10/23 13:29:52;;;;;;;5.22;2.90;;;;;;;;;;5027143;28;20572;-72
2023/10/23 13:32:19;;;;;;;3.83;2.55;;;;;;;;;;5025796;28;20026;-72
2023/10/23 13:34:45;;;;;;;3.95;2.53;;;;;;;;;;5026119;28;20041;-72
2023/10/23 13:37:11;;;;;;;11.25;2.53;;;;;;;;;;5018402;28;20137;-72
2023/10/23 13:39:37;;;;;;;6.72;2.28;;;;;;;;;;5024339;28;21069;-73
2023/10/23 13:42:04;;;;;;;7.43;3.28;;;;;;;;;;5043874;28;20036;-71
2023/10/23 13:44:31;;;;;;;9.07;2.90;;;;;;;;;;5026860;28;20063;-72
2023/10/23 13:46:58;;;;;;;8.27;2.83;;;;;;;;;;5025559;28;20041;-72
2023/10/23 13:49:25;;;;;;;5.43;2.47;;;;;;;;;;5026508;28;20515;-71
2023/10/23 13:51:51;;;;;;;5.97;2.70;;;;;;;;;;5026472;28;20094;-73
2023/10/23 13:54:17;;;;;;;4.45;2.50;;;;;;;;;;5024885;28;20026;-72
2023/10/23 13:56:45;;;;;;;5.57;3.28;;;;;;;;;;5024012;28;20065;-73
2023/10/23 13:59:11;;;;;;;5.55;2.90;;;;;;;;;;5025980;28;20144;-71
2023/10/23 14:01:37;;;;;;;4.20;2.63;;;;;;;;;;5023428;28;20057;-72
2023/10/23 14:04:03;;;;;;;6.28;2.85;;;;;;;;;;5021700;28;20429;-72
2023/10/23 14:06:29;;;;;;;3.85;2.53;;;;;;;;;;5021903;28;20060;-72
2023/10/23 14:08:56;;;;;;;6.82;2.83;;;;;;;;;;5020152;28;20037;-72
2023/10/23 14:11:22;;;;;;;2.67;2.10;;;;;;;;;;5023480;28;20052;-72
2023/10/23 14:13:48;;;;;;;4.45;2.60;;;;;;;;;;5024313;28;20041;-72
2023/10/23 14:16:15;;;;;;;5.55;2.65;;;;;;;;;;5022045;28;20065;-72
2023/10/23 14:18:41;;;;;;;8.32;2.70;;;;;;;;;;5022867;28;20029;-72
2023/10/23 14:21:07;;;;;;;6.40;3.08;;;;;;;;;;5024828;28;20064;-72
2023/10/23 14:23:33;;;;;;;7.05;3.63;;;;;;;;;;5025839;28;20037;-72
2023/10/23 14:25:59;;;;;;;6.25;3.03;;;;;;;;;;5025523;28;20017;-72
2023/10/23 14:28:25;;;;;;;8.38;2.55;;;;;;;;;;5027250;28;20050;-72
2023/10/23 14:30:51;;;;;;;4.13;2.40;;;;;;;;;;5023876;28;20087;-72
2023/10/23 14:33:18;;;;;;;10.77;3.40;;;;;;;;;;5027175;28;20087;-73
2023/10/23 14:35:44;;;;;;;5.78;3.08;;;;;;;;;;5023543;28;20040;-72
2023/10/23 14:38:11;;;;;;;7.47;3.28;;;;;;;;;;5020603;28;20140;-70
2023/10/23 14:40:37;;;;;;;5.93;3.67;;;;;;;;;;5022154;28;20466;-72
2023/10/23 14:43:04;;;;;;;7.38;3.10;;;;;;;;;;5020529;28;20034;-73
2023/10/23 14:45:31;;;;;;;11.15;3.17;;;;;;;;;;5019363;28;20048;-71
2023/10/23 14:47:57;;;;;;;3.92;3.08;;;;;;;;;;5022461;28;20033;-71
2023/10/23 14:50:23;;;;;;;11.65;3.28;;;;;;;;;;5018137;28;20060;-72
2023/10/23 14:52:49;;;;;;;11.77;3.83;;;;;;;;;;5022211;28;20493;-73
2023/10/23 14:55:16;;;;;;;8.18;3.30;;;;;;;;;;5020174;28;20022;-72
2023/10/23 14:57:42;;;;;;;8.77;2.95;;;;;;;;;;5017991;28;20080;-72